createdAt,value
2023-03-22T00:01:49.373Z,79.90
2023-03-22T00:04:37.742Z,82.48
2023-03-22T00:07:26.648Z,82.55
2023-03-22T00:10:14.990Z,82.47
2023-03-22T00:13:03.678Z,83.88
2023-03-22T00:15:52.128Z,84.30
2023-03-22T00:18:41.892Z,84.98
2023-03-22T00:21:30.270Z,85.39
2023-03-22T00:24:18.690Z,86.82
2023-03-22T00:27:07.030Z,85.63
2023-03-22T00:29:55.494Z,85.85
2023-03-22T00:32:43.808Z,85.83
2023-03-22T00:35:33.627Z,86.30
2023-03-22T00:38:29.925Z,86.83
2023-03-22T00:41:27.981Z,87.27
2023-03-22T00:44:16.370Z,86.30
2023-03-22T00:47:06.614Z,86.15
2023-03-22T00:49:55.028Z,86.15
2023-03-22T00:52:44.906Z,84.92
2023-03-22T00:55:33.795Z,85.62
2023-03-22T00:58:22.214Z,86.11
2023-03-22T01:01:13.839Z,86.36
2023-03-22T01:04:03.133Z,86.44
2023-03-22T01:06:59.164Z,85.52
2023-03-22T01:09:49.415Z,85.14
2023-03-22T01:12:37.746Z,85.77
2023-03-22T01:15:26.137Z,86.06
2023-03-22T01:18:14.616Z,85.42
2023-03-22T01:21:03.235Z,85.60
2023-03-22T01:23:51.710Z,86.75
2023-03-22T01:26:41.445Z,86.04
2023-03-22T01:29:31.250Z,85.51
2023-03-22T01:32:19.626Z,84.74
2023-03-22T01:35:08.656Z,83.40
2023-03-22T01:37:58.058Z,83.70
2023-03-22T01:40:46.870Z,83.04
2023-03-22T01:43:36.810Z,85.00
2023-03-22T01:46:25.847Z,83.45
2023-03-22T01:49:16.425Z,83.75
2023-03-22T01:52:08.072Z,83.44
2023-03-22T01:55:03.099Z,85.22
2023-03-22T01:58:01.152Z,84.96
2023-03-22T02:01:04.211Z,84.84
2023-03-22T02:04:13.333Z,84.00
2023-03-22T02:07:03.637Z,83.34
2023-03-22T02:09:53.369Z,83.23
2023-03-22T02:12:51.169Z,84.02
2023-03-22T02:16:00.831Z,83.45
2023-03-22T02:19:42.364Z,83.20
2023-03-22T02:23:02.728Z,82.55
2023-03-22T02:26:15.517Z,82.32
2023-03-22T02:29:09.171Z,81.77
2023-03-22T02:32:15.093Z,82.20
2023-03-22T02:35:25.987Z,81.84
2023-03-22T02:41:29.918Z,81.96
2023-03-22T02:44:24.054Z,81.68
2023-03-22T02:47:20.593Z,81.50
2023-03-22T02:50:12.986Z,80.99
2023-03-22T02:53:06.251Z,81.85
2023-03-22T02:55:57.144Z,85.41
2023-03-22T02:58:51.240Z,86.23
2023-03-22T03:01:41.873Z,85.90
2023-03-22T03:04:36.639Z,85.65
2023-03-22T03:07:28.295Z,83.98
2023-03-22T03:10:17.617Z,83.94
2023-03-22T03:13:05.996Z,84.22
2023-03-22T03:15:59.189Z,83.76
2023-03-22T03:18:50.738Z,83.13
2023-03-22T03:21:45.296Z,83.62
2023-03-22T03:24:37.549Z,83.36
2023-03-22T03:27:29.483Z,82.41
2023-03-22T03:30:22.647Z,82.20
2023-03-22T03:33:16.565Z,82.87
2023-03-22T03:36:08.388Z,82.12
2023-03-22T03:38:57.973Z,81.53
2023-03-22T03:41:48.405Z,81.07
2023-03-22T03:44:37.677Z,81.17
2023-03-22T03:47:26.840Z,80.67
2023-03-22T03:50:17.573Z,80.69
2023-03-22T03:53:06.384Z,80.13
2023-03-22T03:55:54.912Z,80.33
2023-03-22T03:58:43.343Z,80.48
2023-03-22T04:01:32.001Z,80.04
2023-03-22T04:04:30.888Z,80.25
2023-03-22T04:07:23.300Z,80.74
2023-03-22T04:10:11.979Z,81.27
2023-03-22T04:13:00.408Z,79.91
2023-03-22T04:15:49.026Z,80.02
2023-03-22T04:18:37.414Z,79.09
2023-03-22T04:21:29.168Z,80.12
2023-03-22T04:24:21.854Z,81.99
2023-03-22T04:27:12.766Z,82.80
2023-03-22T04:30:20.345Z,83.35
2023-03-22T04:33:32.527Z,83.27
2023-03-22T04:36:39.580Z,82.17
2023-03-22T04:39:46.280Z,82.21
2023-03-22T04:42:40.560Z,81.06
2023-03-22T04:45:36.818Z,80.35
2023-03-22T04:48:28.195Z,80.11
2023-03-22T04:51:17.821Z,81.76
2023-03-22T04:54:20.229Z,81.16
2023-03-22T04:57:09.975Z,81.33
2023-03-22T05:00:06.688Z,81.17
2023-03-22T05:02:55.262Z,80.19
2023-03-22T05:06:10.600Z,80.56
2023-03-22T05:09:08.762Z,79.47
2023-03-22T05:11:57.248Z,80.15
2023-03-22T05:15:10.566Z,79.57
2023-03-22T05:18:00.349Z,79.86
2023-03-22T05:20:49.409Z,80.35
2023-03-22T05:23:42.064Z,81.28
2023-03-22T05:26:31.380Z,83.03
2023-03-22T05:29:19.923Z,84.00
2023-03-22T05:32:30.357Z,83.03
2023-03-22T05:35:19.201Z,82.16
2023-03-22T05:38:12.980Z,82.50
2023-03-22T05:41:06.705Z,82.31
2023-03-22T05:43:56.542Z,82.66
2023-03-22T05:46:45.316Z,82.39
2023-03-22T05:49:56.030Z,82.23
2023-03-22T05:52:46.485Z,81.46
2023-03-22T05:55:53.128Z,81.32
2023-03-22T05:58:42.321Z,81.40
2023-03-22T06:01:34.184Z,81.31
2023-03-22T06:04:42.586Z,82.82
2023-03-22T06:07:35.977Z,83.14
2023-03-22T06:10:36.539Z,85.17
2023-03-22T06:13:25.071Z,86.39
2023-03-22T06:16:13.714Z,86.08
2023-03-22T06:19:03.895Z,84.89
2023-03-22T06:21:52.894Z,83.94
2023-03-22T06:24:44.603Z,84.19
2023-03-22T06:27:38.634Z,83.85
2023-03-22T06:30:27.514Z,84.34
2023-03-22T06:33:39.261Z,84.87
2023-03-22T06:36:42.515Z,84.42
2023-03-22T06:39:38.606Z,84.03
2023-03-22T06:42:30.855Z,85.67
2023-03-22T06:45:33.440Z,85.57
2023-03-22T06:48:23.261Z,85.22
2023-03-22T06:51:20.192Z,85.16
2023-03-22T06:54:12.668Z,84.65
2023-03-22T06:57:01.461Z,84.29
2023-03-22T06:59:51.341Z,85.14
2023-03-22T07:02:39.722Z,83.85
2023-03-22T07:05:38.281Z,83.40
2023-03-22T07:08:26.839Z,83.12
2023-03-22T07:11:15.486Z,82.76
2023-03-22T07:14:07.115Z,82.54
2023-03-22T07:17:14.359Z,81.91
2023-03-22T07:20:03.985Z,81.42
2023-03-22T07:22:53.063Z,79.70
2023-03-22T07:25:44.005Z,80.81
2023-03-22T07:28:52.734Z,79.14
2023-03-22T07:31:46.790Z,78.88
2023-03-22T07:34:45.119Z,78.47
2023-03-22T07:37:37.262Z,77.88
2023-03-22T07:40:30.975Z,77.82
2023-03-22T07:43:20.421Z,78.29
2023-03-22T07:46:17.140Z,77.68
2023-03-22T07:49:41.169Z,76.20
2023-03-22T07:52:35.669Z,75.07
2023-03-22T07:55:24.756Z,75.38
2023-03-22T07:58:13.184Z,75.51
2023-03-22T08:01:05.551Z,74.30
2023-03-22T08:04:14.295Z,74.94
2023-03-22T08:07:19.589Z,73.18
2023-03-22T08:10:11.011Z,72.69
2023-03-22T08:13:00.833Z,73.18
2023-03-22T08:15:49.464Z,73.07
2023-03-22T08:18:40.680Z,71.64
2023-03-22T08:21:29.236Z,70.65
2023-03-22T08:24:18.853Z,69.57
2023-03-22T08:27:23.329Z,68.43
2023-03-22T08:30:13.766Z,69.33
2023-03-22T08:33:03.158Z,66.88
2023-03-22T08:35:52.151Z,67.01
2023-03-22T08:38:42.560Z,66.55
2023-03-22T08:41:31.602Z,65.47
2023-03-22T08:44:22.101Z,65.78
2023-03-22T08:47:11.007Z,64.51
2023-03-22T08:50:00.308Z,65.42
2023-03-22T08:53:13.908Z,63.80
2023-03-22T08:56:08.179Z,64.04
2023-03-22T08:59:22.082Z,63.38
2023-03-22T09:02:33.000Z,62.85
2023-03-22T09:05:22.104Z,62.65
2023-03-22T09:08:18.666Z,61.20
2023-03-22T09:11:09.939Z,61.21
2023-03-22T09:13:58.409Z,60.36
2023-03-22T09:16:48.366Z,59.68
2023-03-22T09:19:37.100Z,59.78
2023-03-22T09:22:26.272Z,59.95
2023-03-22T09:25:14.956Z,60.01
2023-03-22T09:28:06.234Z,57.79
2023-03-22T09:30:55.112Z,58.27
2023-03-22T09:33:44.966Z,57.31
2023-03-22T09:36:34.355Z,57.98
2023-03-22T09:39:23.187Z,57.40
2023-03-22T09:42:24.704Z,57.52
2023-03-22T09:45:17.712Z,55.63
2023-03-22T09:48:11.365Z,55.58
2023-03-22T09:51:02.849Z,55.10
2023-03-22T09:53:51.273Z,55.11
2023-03-22T09:56:40.862Z,53.83
2023-03-22T09:59:34.828Z,54.30
2023-03-22T10:02:34.004Z,54.46
2023-03-22T10:05:28.490Z,53.31
2023-03-22T10:08:28.066Z,54.01
2023-03-22T10:11:24.326Z,52.45
2023-03-22T10:14:29.237Z,53.00
2023-03-22T10:17:20.216Z,55.05
2023-03-22T10:20:12.234Z,51.54
2023-03-22T10:23:02.247Z,52.28
2023-03-22T10:25:53.014Z,51.90
2023-03-22T10:28:44.935Z,50.56
2023-03-22T10:31:35.223Z,52.33
2023-03-22T10:34:28.047Z,49.68
2023-03-22T10:37:18.512Z,50.33
2023-03-22T10:40:08.565Z,50.36
2023-03-22T10:43:04.513Z,49.46
2023-03-22T10:45:54.499Z,49.87
2023-03-22T10:48:45.375Z,48.93
2023-03-22T10:51:37.036Z,49.04
2023-03-22T10:54:26.265Z,48.94
2023-03-22T10:57:14.687Z,49.75
2023-03-22T11:00:11.510Z,50.61
2023-03-22T11:03:01.923Z,49.33
2023-03-22T11:05:59.694Z,49.08
2023-03-22T11:08:50.500Z,49.17
2023-03-22T11:11:46.442Z,48.27
2023-03-22T11:14:36.881Z,48.04
2023-03-22T11:17:27.040Z,48.34
2023-03-22T11:20:17.475Z,47.84
2023-03-22T11:23:06.992Z,46.50
2023-03-22T11:25:57.977Z,46.66
2023-03-22T11:28:48.480Z,44.76
2023-03-22T11:31:56.264Z,45.20
2023-03-22T11:34:47.364Z,45.04
2023-03-22T11:37:42.272Z,46.57
2023-03-22T11:40:32.520Z,44.97
2023-03-22T11:43:22.854Z,45.24
2023-03-22T11:46:12.391Z,44.82
2023-03-22T11:49:04.049Z,43.80
2023-03-22T11:51:54.676Z,46.05
2023-03-22T11:54:43.781Z,45.85
2023-03-22T11:57:33.145Z,45.00
2023-03-22T12:00:24.094Z,44.60
2023-03-22T12:03:16.691Z,44.95
2023-03-22T12:06:08.149Z,44.18
2023-03-22T12:09:00.402Z,43.52
2023-03-22T12:11:50.657Z,45.65
2023-03-22T12:14:46.741Z,44.28
2023-03-22T12:17:37.959Z,43.64
2023-03-22T12:20:35.336Z,42.67
2023-03-22T12:23:25.824Z,42.42
2023-03-22T12:26:17.588Z,41.83
2023-03-22T12:29:08.261Z,43.52
2023-03-22T12:32:01.068Z,43.18
2023-03-22T12:34:55.104Z,42.35
2023-03-22T12:37:52.948Z,42.54
2023-03-22T12:40:42.364Z,42.68
2023-03-22T12:43:45.721Z,41.80
2023-03-22T12:46:36.765Z,42.08
2023-03-22T12:49:29.126Z,44.60
2023-03-22T12:52:20.736Z,42.17
2023-03-22T12:55:10.733Z,42.18
2023-03-22T12:57:59.636Z,41.30
2023-03-22T13:00:51.841Z,39.81
2023-03-22T13:03:43.907Z,39.04
2023-03-22T13:06:48.947Z,39.83
2023-03-22T13:09:40.558Z,39.72
2023-03-22T13:12:32.655Z,38.33
2023-03-22T13:15:41.298Z,38.85
2023-03-22T13:18:38.852Z,38.06
2023-03-22T13:21:29.423Z,39.70
2023-03-22T13:24:23.393Z,38.61
2023-03-22T13:27:15.067Z,36.92
2023-03-22T13:30:08.093Z,35.67
2023-03-22T13:33:03.614Z,37.39
2023-03-22T13:35:56.908Z,37.22
2023-03-22T13:38:55.323Z,37.48
2023-03-22T13:41:47.234Z,37.51
2023-03-22T13:44:40.696Z,36.87
2023-03-22T13:47:35.561Z,36.02
2023-03-22T13:50:29.054Z,35.71
2023-03-22T13:53:23.197Z,35.84
2023-03-22T13:56:13.488Z,36.22
2023-03-22T13:59:03.690Z,36.26
2023-03-22T14:01:53.811Z,36.84
2023-03-22T14:04:45.528Z,35.68
2023-03-22T14:07:38.626Z,36.55
2023-03-22T14:10:34.377Z,35.40
2023-03-22T14:13:30.033Z,35.10
2023-03-22T14:16:21.689Z,36.16
2023-03-22T14:19:17.137Z,35.68
